sensor_id;sensor_type;location;lat;lon;timestamp;temperature;humidity
17687;DHT22;8962;52.538;13.266;2022-09-19T00:01:08;9.20;99.90
17687;DHT22;8962;52.538;13.266;2022-09-19T00:03:37;9.20;99.90
17687;DHT22;8962;52.538;13.266;2022-09-19T00:06:04;9.20;99.90
17687;DHT22;8962;52.538;13.266;2022-09-19T00:08:31;9.10;99.90
17687;DHT22;8962;52.538;13.266;2022-09-19T00:11:01;9.10;99.90
17687;DHT22;8962;52.538;13.266;2022-09-19T00:13:28;9.00;99.90
17687;DHT22;8962;52.538;13.266;2022-09-19T00:15:56;9.00;99.90
17687;DHT22;8962;52.538;13.266;2022-09-19T00:18:25;9.00;99.90
17687;DHT22;8962;52.538;13.266;2022-09-19T00:20:53;9.00;99.90
17687;DHT22;8962;52.538;13.266;2022-09-19T00:23:20;9.10;99.90
17687;DHT22;8962;52.538;13.266;2022-09-19T00:26:07;9.10;99.90
17687;DHT22;8962;52.538;13.266;2022-09-19T00:28:34;9.10;99.90
17687;DHT22;8962;52.538;13.266;2022-09-19T00:31:01;9.00;99.90
17687;DHT22;8962;52.538;13.266;2022-09-19T00:33:32;9.00;99.90
17687;DHT22;8962;52.538;13.266;2022-09-19T00:36:01;9.10;99.90
17687;DHT22;8962;52.538;13.266;2022-09-19T00:38:30;9.00;99.90
17687;DHT22;8962;52.538;13.266;2022-09-19T00:40:58;9.00;99.90
17687;DHT22;8962;52.538;13.266;2022-09-19T00:43:43;9.10;99.90
17687;DHT22;8962;52.538;13.266;2022-09-19T00:46:11;9.10;99.90
17687;DHT22;8962;52.538;13.266;2022-09-19T00:48:40;9.10;99.90
17687;DHT22;8962;52.538;13.266;2022-09-19T00:51:09;9.10;99.90
17687;DHT22;8962;52.538;13.266;2022-09-19T00:53:38;9.10;99.90
17687;DHT22;8962;52.538;13.266;2022-09-19T00:56:06;9.10;99.90
17687;DHT22;8962;52.538;13.266;2022-09-19T00:58:38;9.10;99.90
17687;DHT22;8962;52.538;13.266;2022-09-19T01:01:06;9.00;99.90
17687;DHT22;8962;52.538;13.266;2022-09-19T01:03:33;9.00;99.90
17687;DHT22;8962;52.538;13.266;2022-09-19T01:06:10;8.90;99.90
17687;DHT22;8962;52.538;13.266;2022-09-19T01:08:58;8.90;99.90
17687;DHT22;8962;52.538;13.266;2022-09-19T01:11:41;8.80;99.90
17687;DHT22;8962;52.538;13.266;2022-09-19T01:14:18;8.80;99.90
17687;DHT22;8962;52.538;13.266;2022-09-19T01:16:54;8.70;99.90
17687;DHT22;8962;52.538;13.266;2022-09-19T01:19:40;8.60;99.90
17687;DHT22;8962;52.538;13.266;2022-09-19T01:22:20;8.70;99.90
17687;DHT22;8962;52.538;13.266;2022-09-19T01:24:56;8.70;99.90
17687;DHT22;8962;52.538;13.266;2022-09-19T01:27:40;8.70;99.90
17687;DHT22;8962;52.538;13.266;2022-09-19T01:30:12;8.60;99.90
17687;DHT22;8962;52.538;13.266;2022-09-19T01:32:45;8.60;99.90
17687;DHT22;8962;52.538;13.266;2022-09-19T01:35:21;8.70;99.90
17687;DHT22;8962;52.538;13.266;2022-09-19T01:37:54;8.60;99.90
17687;DHT22;8962;52.538;13.266;2022-09-19T01:40:22;8.70;99.90
17687;DHT22;8962;52.538;13.266;2022-09-19T01:42:56;8.70;99.90
17687;DHT22;8962;52.538;13.266;2022-09-19T01:45:27;8.70;99.90
17687;DHT22;8962;52.538;13.266;2022-09-19T01:48:05;8.70;99.90
17687;DHT22;8962;52.538;13.266;2022-09-19T01:50:59;8.70;99.90
17687;DHT22;8962;52.538;13.266;2022-09-19T01:53:43;8.80;99.90
17687;DHT22;8962;52.538;13.266;2022-09-19T01:56:38;8.80;99.90
17687;DHT22;8962;52.538;13.266;2022-09-19T01:59:16;8.90;99.90
17687;DHT22;8962;52.538;13.266;2022-09-19T02:01:50;9.00;99.90
17687;DHT22;8962;52.538;13.266;2022-09-19T02:04:23;9.00;99.90
17687;DHT22;8962;52.538;13.266;2022-09-19T02:06:55;9.00;99.90
17687;DHT22;8962;52.538;13.266;2022-09-19T02:09:32;9.00;99.90
17687;DHT22;8962;52.538;13.266;2022-09-19T02:12:03;9.10;99.90
17687;DHT22;8962;52.538;13.266;2022-09-19T02:14:37;9.10;99.90
17687;DHT22;8962;52.538;13.266;2022-09-19T02:17:11;9.20;99.90
17687;DHT22;8962;52.538;13.266;2022-09-19T02:19:43;9.20;99.90
17687;DHT22;8962;52.538;13.266;2022-09-19T02:22:17;9.20;99.90
17687;DHT22;8962;52.538;13.266;2022-09-19T02:24:49;9.20;99.90
17687;DHT22;8962;52.538;13.266;2022-09-19T02:27:27;9.30;99.90
17687;DHT22;8962;52.538;13.266;2022-09-19T02:29:58;9.30;99.90
17687;DHT22;8962;52.538;13.266;2022-09-19T02:32:32;9.30;99.90
17687;DHT22;8962;52.538;13.266;2022-09-19T02:35:01;9.30;99.90
17687;DHT22;8962;52.538;13.266;2022-09-19T02:37:34;9.30;99.90
17687;DHT22;8962;52.538;13.266;2022-09-19T02:40:11;9.30;99.90
17687;DHT22;8962;52.538;13.266;2022-09-19T02:42:47;9.30;99.90
17687;DHT22;8962;52.538;13.266;2022-09-19T02:45:20;9.40;99.90
17687;DHT22;8962;52.538;13.266;2022-09-19T02:48:01;9.40;99.90
17687;DHT22;8962;52.538;13.266;2022-09-19T02:50:36;9.50;99.90
17687;DHT22;8962;52.538;13.266;2022-09-19T02:53:11;9.40;99.90
17687;DHT22;8962;52.538;13.266;2022-09-19T02:55:43;9.40;99.90
17687;DHT22;8962;52.538;13.266;2022-09-19T02:58:15;9.50;99.90
17687;DHT22;8962;52.538;13.266;2022-09-19T03:00:45;9.50;99.90
17687;DHT22;8962;52.538;13.266;2022-09-19T03:03:23;9.50;99.90
17687;DHT22;8962;52.538;13.266;2022-09-19T03:06:12;9.50;99.90
17687;DHT22;8962;52.538;13.266;2022-09-19T03:08:42;9.60;99.90
17687;DHT22;8962;52.538;13.266;2022-09-19T03:11:14;9.60;99.90
17687;DHT22;8962;52.538;13.266;2022-09-19T03:13:43;9.60;99.90
17687;DHT22;8962;52.538;13.266;2022-09-19T03:16:16;9.60;99.90
17687;DHT22;8962;52.538;13.266;2022-09-19T03:18:46;9.70;99.90
17687;DHT22;8962;52.538;13.266;2022-09-19T03:21:19;9.70;99.90
17687;DHT22;8962;52.538;13.266;2022-09-19T03:23:50;9.80;99.90
17687;DHT22;8962;52.538;13.266;2022-09-19T03:26:24;9.80;99.90
17687;DHT22;8962;52.538;13.266;2022-09-19T03:28:53;9.80;99.90
17687;DHT22;8962;52.538;13.266;2022-09-19T03:31:22;9.80;99.90
17687;DHT22;8962;52.538;13.266;2022-09-19T03:33:53;9.80;99.90
17687;DHT22;8962;52.538;13.266;2022-09-19T03:36:22;9.90;99.90
17687;DHT22;8962;52.538;13.266;2022-09-19T03:38:50;9.90;99.90
17687;DHT22;8962;52.538;13.266;2022-09-19T03:41:21;9.90;99.90
17687;DHT22;8962;52.538;13.266;2022-09-19T03:43:50;9.90;99.90
17687;DHT22;8962;52.538;13.266;2022-09-19T03:46:18;9.90;99.90
17687;DHT22;8962;52.538;13.266;2022-09-19T03:48:47;10.00;99.90
17687;DHT22;8962;52.538;13.266;2022-09-19T03:51:20;10.00;99.90
17687;DHT22;8962;52.538;13.266;2022-09-19T03:53:47;10.00;99.90
17687;DHT22;8962;52.538;13.266;2022-09-19T03:56:18;10.00;99.90
17687;DHT22;8962;52.538;13.266;2022-09-19T03:58:47;10.00;99.90
17687;DHT22;8962;52.538;13.266;2022-09-19T04:01:14;10.00;99.90
17687;DHT22;8962;52.538;13.266;2022-09-19T04:03:44;10.00;99.90
17687;DHT22;8962;52.538;13.266;2022-09-19T04:06:12;10.00;99.90
17687;DHT22;8962;52.538;13.266;2022-09-19T04:08:41;10.00;99.90
17687;DHT22;8962;52.538;13.266;2022-09-19T04:11:08;10.00;99.90
17687;DHT22;8962;52.538;13.266;2022-09-19T04:13:35;10.00;99.90
17687;DHT22;8962;52.538;13.266;2022-09-19T04:16:12;10.00;99.90
17687;DHT22;8962;52.538;13.266;2022-09-19T04:18:40;10.00;99.90
17687;DHT22;8962;52.538;13.266;2022-09-19T04:21:14;10.00;99.90
17687;DHT22;8962;52.538;13.266;2022-09-19T04:23:53;10.00;99.90
17687;DHT22;8962;52.538;13.266;2022-09-19T04:26:37;10.00;99.90
17687;DHT22;8962;52.538;13.266;2022-09-19T04:29:05;10.00;99.90
17687;DHT22;8962;52.538;13.266;2022-09-19T04:31:33;10.00;99.90
17687;DHT22;8962;52.538;13.266;2022-09-19T04:34:05;9.90;99.90
17687;DHT22;8962;52.538;13.266;2022-09-19T04:36:32;9.90;99.90
17687;DHT22;8962;52.538;13.266;2022-09-19T04:39:01;9.90;99.90
17687;DHT22;8962;52.538;13.266;2022-09-19T04:41:31;9.90;99.90
17687;DHT22;8962;52.538;13.266;2022-09-19T04:44:02;10.00;99.90
17687;DHT22;8962;52.538;13.266;2022-09-19T04:46:53;10.00;99.90
17687;DHT22;8962;52.538;13.266;2022-09-19T04:49:20;10.00;99.90
17687;DHT22;8962;52.538;13.266;2022-09-19T04:51:47;10.00;99.90
17687;DHT22;8962;52.538;13.266;2022-09-19T04:54:16;10.00;99.90
17687;DHT22;8962;52.538;13.266;2022-09-19T04:56:46;10.00;99.90
17687;DHT22;8962;52.538;13.266;2022-09-19T04:59:13;10.00;99.90
17687;DHT22;8962;52.538;13.266;2022-09-19T05:01:40;10.00;99.90
17687;DHT22;8962;52.538;13.266;2022-09-19T05:04:09;10.00;99.90
17687;DHT22;8962;52.538;13.266;2022-09-19T05:06:36;10.00;99.90
17687;DHT22;8962;52.538;13.266;2022-09-19T05:09:05;10.10;99.90
17687;DHT22;8962;52.538;13.266;2022-09-19T05:11:39;10.10;99.90
17687;DHT22;8962;52.538;13.266;2022-09-19T05:14:09;10.10;99.90
17687;DHT22;8962;52.538;13.266;2022-09-19T05:16:41;10.10;99.90
17687;DHT22;8962;52.538;13.266;2022-09-19T05:19:08;10.20;99.90
17687;DHT22;8962;52.538;13.266;2022-09-19T05:21:35;10.20;99.90
17687;DHT22;8962;52.538;13.266;2022-09-19T05:24:03;10.20;99.90
17687;DHT22;8962;52.538;13.266;2022-09-19T05:26:30;10.20;99.90
17687;DHT22;8962;52.538;13.266;2022-09-19T05:29:03;10.30;99.90
17687;DHT22;8962;52.538;13.266;2022-09-19T05:31:39;10.30;99.90
17687;DHT22;8962;52.538;13.266;2022-09-19T05:34:35;10.40;99.90
17687;DHT22;8962;52.538;13.266;2022-09-19T05:37:02;10.40;99.90
17687;DHT22;8962;52.538;13.266;2022-09-19T05:39:48;10.50;99.90
17687;DHT22;8962;52.538;13.266;2022-09-19T05:42:54;10.50;99.90
17687;DHT22;8962;52.538;13.266;2022-09-19T05:45:29;10.60;99.90
17687;DHT22;8962;52.538;13.266;2022-09-19T05:48:00;10.60;99.90
17687;DHT22;8962;52.538;13.266;2022-09-19T05:50:27;10.70;99.90
17687;DHT22;8962;52.538;13.266;2022-09-19T05:52:54;10.70;99.90
17687;DHT22;8962;52.538;13.266;2022-09-19T05:55:39;10.60;99.90
17687;DHT22;8962;52.538;13.266;2022-09-19T05:58:27;10.70;99.90
17687;DHT22;8962;52.538;13.266;2022-09-19T06:00:58;10.70;99.90
17687;DHT22;8962;52.538;13.266;2022-09-19T06:03:28;10.80;99.90
17687;DHT22;8962;52.538;13.266;2022-09-19T06:05:59;10.80;99.90
17687;DHT22;8962;52.538;13.266;2022-09-19T06:08:27;10.80;99.90
17687;DHT22;8962;52.538;13.266;2022-09-19T06:10:59;11.00;99.90
17687;DHT22;8962;52.538;13.266;2022-09-19T06:13:27;10.90;99.90
17687;DHT22;8962;52.538;13.266;2022-09-19T06:16:16;11.00;99.90
17687;DHT22;8962;52.538;13.266;2022-09-19T06:19:13;11.00;99.90
17687;DHT22;8962;52.538;13.266;2022-09-19T06:21:40;11.00;99.90
17687;DHT22;8962;52.538;13.266;2022-09-19T06:24:08;11.10;99.90
17687;DHT22;8962;52.538;13.266;2022-09-19T06:26:35;11.10;99.90
17687;DHT22;8962;52.538;13.266;2022-09-19T06:29:04;11.10;99.90
17687;DHT22;8962;52.538;13.266;2022-09-19T06:31:34;11.10;99.90
17687;DHT22;8962;52.538;13.266;2022-09-19T06:34:17;11.10;99.90
17687;DHT22;8962;52.538;13.266;2022-09-19T06:36:47;11.20;99.90
17687;DHT22;8962;52.538;13.266;2022-09-19T06:39:14;11.20;99.90
17687;DHT22;8962;52.538;13.266;2022-09-19T06:41:56;11.30;99.90
17687;DHT22;8962;52.538;13.266;2022-09-19T06:44:35;11.30;99.90
17687;DHT22;8962;52.538;13.266;2022-09-19T06:47:13;11.40;99.90
17687;DHT22;8962;52.538;13.266;2022-09-19T06:50:07;11.50;99.90
17687;DHT22;8962;52.538;13.266;2022-09-19T06:52:57;11.60;99.90
17687;DHT22;8962;52.538;13.266;2022-09-19T06:55:25;11.70;99.90
17687;DHT22;8962;52.538;13.266;2022-09-19T06:57:57;11.70;99.90
17687;DHT22;8962;52.538;13.266;2022-09-19T07:00:29;11.80;99.90
17687;DHT22;8962;52.538;13.266;2022-09-19T07:03:01;11.90;99.90
17687;DHT22;8962;52.538;13.266;2022-09-19T07:05:31;12.00;99.90
17687;DHT22;8962;52.538;13.266;2022-09-19T07:08:15;12.00;99.90
17687;DHT22;8962;52.538;13.266;2022-09-19T07:10:43;12.10;99.90
17687;DHT22;8962;52.538;13.266;2022-09-19T07:13:12;12.10;99.90
17687;DHT22;8962;52.538;13.266;2022-09-19T07:15:43;12.00;99.90
17687;DHT22;8962;52.538;13.266;2022-09-19T07:18:12;12.00;99.90
17687;DHT22;8962;52.538;13.266;2022-09-19T07:20:41;12.10;99.90
17687;DHT22;8962;52.538;13.266;2022-09-19T07:23:12;12.20;99.90
17687;DHT22;8962;52.538;13.266;2022-09-19T07:25:54;12.20;99.90
17687;DHT22;8962;52.538;13.266;2022-09-19T07:28:22;12.20;99.90
17687;DHT22;8962;52.538;13.266;2022-09-19T07:30:52;12.20;99.90
17687;DHT22;8962;52.538;13.266;2022-09-19T07:33:22;12.20;99.90
17687;DHT22;8962;52.538;13.266;2022-09-19T07:35:50;12.30;99.90
17687;DHT22;8962;52.538;13.266;2022-09-19T07:38:23;12.40;99.90
17687;DHT22;8962;52.538;13.266;2022-09-19T07:41:04;12.40;99.90
17687;DHT22;8962;52.538;13.266;2022-09-19T07:43:36;12.50;99.90
17687;DHT22;8962;52.538;13.266;2022-09-19T07:46:22;12.60;99.90
17687;DHT22;8962;52.538;13.266;2022-09-19T07:49:11;12.70;99.90
17687;DHT22;8962;52.538;13.266;2022-09-19T07:51:50;12.80;99.90
17687;DHT22;8962;52.538;13.266;2022-09-19T07:54:18;12.90;99.90
17687;DHT22;8962;52.538;13.266;2022-09-19T07:56:46;13.00;99.90
17687;DHT22;8962;52.538;13.266;2022-09-19T07:59:15;13.10;99.90
17687;DHT22;8962;52.538;13.266;2022-09-19T08:01:54;13.10;99.90
17687;DHT22;8962;52.538;13.266;2022-09-19T08:04:36;13.10;99.90
17687;DHT22;8962;52.538;13.266;2022-09-19T08:07:03;13.30;99.90
17687;DHT22;8962;52.538;13.266;2022-09-19T08:09:31;13.40;99.90
17687;DHT22;8962;52.538;13.266;2022-09-19T08:12:07;13.50;99.90
17687;DHT22;8962;52.538;13.266;2022-09-19T08:14:45;13.50;99.90
17687;DHT22;8962;52.538;13.266;2022-09-19T08:17:13;13.60;99.90
17687;DHT22;8962;52.538;13.266;2022-09-19T08:19:43;13.80;99.90
17687;DHT22;8962;52.538;13.266;2022-09-19T08:22:11;13.80;99.90
17687;DHT22;8962;52.538;13.266;2022-09-19T08:24:46;13.90;99.90
17687;DHT22;8962;52.538;13.266;2022-09-19T08:27:14;14.20;99.90
17687;DHT22;8962;52.538;13.266;2022-09-19T08:29:42;14.20;99.90
17687;DHT22;8962;52.538;13.266;2022-09-19T08:32:13;14.40;99.90
17687;DHT22;8962;52.538;13.266;2022-09-19T08:34:42;14.50;99.90
17687;DHT22;8962;52.538;13.266;2022-09-19T08:37:09;14.50;99.90
17687;DHT22;8962;52.538;13.266;2022-09-19T08:39:41;14.50;99.90
17687;DHT22;8962;52.538;13.266;2022-09-19T08:42:38;14.40;99.90
17687;DHT22;8962;52.538;13.266;2022-09-19T08:45:17;14.40;99.90
17687;DHT22;8962;52.538;13.266;2022-09-19T08:47:46;14.20;99.90
17687;DHT22;8962;52.538;13.266;2022-09-19T08:50:18;14.20;99.90
17687;DHT22;8962;52.538;13.266;2022-09-19T08:52:50;14.10;99.90
17687;DHT22;8962;52.538;13.266;2022-09-19T08:55:27;14.20;99.90
17687;DHT22;8962;52.538;13.266;2022-09-19T08:57:57;14.40;99.90
17687;DHT22;8962;52.538;13.266;2022-09-19T09:00:31;14.60;99.90
17687;DHT22;8962;52.538;13.266;2022-09-19T09:03:03;14.90;99.90
17687;DHT22;8962;52.538;13.266;2022-09-19T09:05:45;15.10;99.90
17687;DHT22;8962;52.538;13.266;2022-09-19T09:08:24;15.60;99.90
17687;DHT22;8962;52.538;13.266;2022-09-19T09:11:34;16.20;99.90
17687;DHT22;8962;52.538;13.266;2022-09-19T09:14:12;16.50;99.90
17687;DHT22;8962;52.538;13.266;2022-09-19T09:16:55;15.90;99.90
17687;DHT22;8962;52.538;13.266;2022-09-19T09:19:45;15.80;99.90
17687;DHT22;8962;52.538;13.266;2022-09-19T09:22:22;15.80;99.90
17687;DHT22;8962;52.538;13.266;2022-09-19T09:25:10;15.70;99.90
17687;DHT22;8962;52.538;13.266;2022-09-19T09:27:52;15.90;99.90
17687;DHT22;8962;52.538;13.266;2022-09-19T09:30:34;16.40;99.90
17687;DHT22;8962;52.538;13.266;2022-09-19T09:33:12;16.60;99.90
17687;DHT22;8962;52.538;13.266;2022-09-19T09:35:52;16.60;99.90
17687;DHT22;8962;52.538;13.266;2022-09-19T09:38:27;16.70;99.90
17687;DHT22;8962;52.538;13.266;2022-09-19T09:41:12;16.80;99.90
17687;DHT22;8962;52.538;13.266;2022-09-19T09:44:07;16.80;99.90
17687;DHT22;8962;52.538;13.266;2022-09-19T09:46:52;17.10;99.90
17687;DHT22;8962;52.538;13.266;2022-09-19T09:49:30;17.00;99.90
17687;DHT22;8962;52.538;13.266;2022-09-19T09:52:16;16.90;99.90
17687;DHT22;8962;52.538;13.266;2022-09-19T09:55:02;16.90;99.90
17687;DHT22;8962;52.538;13.266;2022-09-19T09:57:56;16.80;99.90
17687;DHT22;8962;52.538;13.266;2022-09-19T10:00:26;16.60;99.90
17687;DHT22;8962;52.538;13.266;2022-09-19T10:03:21;16.40;99.90
17687;DHT22;8962;52.538;13.266;2022-09-19T10:06:30;16.50;99.90
17687;DHT22;8962;52.538;13.266;2022-09-19T10:09:04;15.40;99.90
17687;DHT22;8962;52.538;13.266;2022-09-19T10:11:39;14.30;99.90
17687;DHT22;8962;52.538;13.266;2022-09-19T10:14:16;13.70;99.90
17687;DHT22;8962;52.538;13.266;2022-09-19T10:17:15;13.40;99.90
17687;DHT22;8962;52.538;13.266;2022-09-19T10:19:48;13.30;99.90
17687;DHT22;8962;52.538;13.266;2022-09-19T10:22:17;13.10;99.90
17687;DHT22;8962;52.538;13.266;2022-09-19T10:24:53;12.80;99.90
17687;DHT22;8962;52.538;13.266;2022-09-19T10:27:36;12.50;99.90
17687;DHT22;8962;52.538;13.266;2022-09-19T10:30:20;12.30;99.90
17687;DHT22;8962;52.538;13.266;2022-09-19T10:32:52;12.20;99.90
17687;DHT22;8962;52.538;13.266;2022-09-19T10:35:38;12.30;99.90
17687;DHT22;8962;52.538;13.266;2022-09-19T10:38:11;12.20;99.90
17687;DHT22;8962;52.538;13.266;2022-09-19T10:40:52;12.10;99.90
17687;DHT22;8962;52.538;13.266;2022-09-19T10:43:23;12.20;99.90
17687;DHT22;8962;52.538;13.266;2022-09-19T10:45:58;12.20;99.90
17687;DHT22;8962;52.538;13.266;2022-09-19T10:48:48;12.30;99.90
17687;DHT22;8962;52.538;13.266;2022-09-19T10:51:20;12.60;99.90
17687;DHT22;8962;52.538;13.266;2022-09-19T10:54:09;13.00;99.90
17687;DHT22;8962;52.538;13.266;2022-09-19T10:56:38;13.40;99.90
17687;DHT22;8962;52.538;13.266;2022-09-19T10:59:21;13.60;99.90
17687;DHT22;8962;52.538;13.266;2022-09-19T11:02:18;13.50;99.90
17687;DHT22;8962;52.538;13.266;2022-09-19T11:04:53;13.70;99.90
17687;DHT22;8962;52.538;13.266;2022-09-19T11:07:27;14.00;99.90
17687;DHT22;8962;52.538;13.266;2022-09-19T11:10:01;14.30;99.90
17687;DHT22;8962;52.538;13.266;2022-09-19T11:12:36;14.80;99.90
17687;DHT22;8962;52.538;13.266;2022-09-19T11:15:12;15.20;99.90
17687;DHT22;8962;52.538;13.266;2022-09-19T11:17:55;15.50;99.90
17687;DHT22;8962;52.538;13.266;2022-09-19T11:20:46;16.10;99.90
17687;DHT22;8962;52.538;13.266;2022-09-19T11:23:47;17.20;99.90
17687;DHT22;8962;52.538;13.266;2022-09-19T11:26:29;17.80;99.90
17687;DHT22;8962;52.538;13.266;2022-09-19T11:29:17;17.50;99.90
17687;DHT22;8962;52.538;13.266;2022-09-19T11:31:56;17.10;99.90
17687;DHT22;8962;52.538;13.266;2022-09-19T11:34:35;16.50;99.90
17687;DHT22;8962;52.538;13.266;2022-09-19T11:37:22;16.30;99.90
17687;DHT22;8962;52.538;13.266;2022-09-19T11:40:04;16.20;99.90
17687;DHT22;8962;52.538;13.266;2022-09-19T11:42:41;18.10;99.90
17687;DHT22;8962;52.538;13.266;2022-09-19T11:45:16;19.70;99.90
17687;DHT22;8962;52.538;13.266;2022-09-19T11:48:18;19.40;99.90
17687;DHT22;8962;52.538;13.266;2022-09-19T11:51:05;20.00;99.90
17687;DHT22;8962;52.538;13.266;2022-09-19T11:53:46;21.00;99.90
17687;DHT22;8962;52.538;13.266;2022-09-19T11:56:40;19.90;99.90
17687;DHT22;8962;52.538;13.266;2022-09-19T11:59:26;19.20;99.90
17687;DHT22;8962;52.538;13.266;2022-09-19T12:02:19;19.10;99.90
17687;DHT22;8962;52.538;13.266;2022-09-19T12:05:00;18.70;99.90
17687;DHT22;8962;52.538;13.266;2022-09-19T12:07:40;18.20;99.90
17687;DHT22;8962;52.538;13.266;2022-09-19T12:10:14;17.20;99.90
17687;DHT22;8962;52.538;13.266;2022-09-19T12:13:08;16.10;99.90
17687;DHT22;8962;52.538;13.266;2022-09-19T12:15:47;15.10;99.90
17687;DHT22;8962;52.538;13.266;2022-09-19T12:18:17;14.10;99.90
17687;DHT22;8962;52.538;13.266;2022-09-19T12:20:51;13.40;99.90
17687;DHT22;8962;52.538;13.266;2022-09-19T12:23:23;12.80;99.90
17687;DHT22;8962;52.538;13.266;2022-09-19T12:26:18;12.30;99.90
17687;DHT22;8962;52.538;13.266;2022-09-19T12:28:53;12.00;99.90
17687;DHT22;8962;52.538;13.266;2022-09-19T12:31:27;11.80;99.90
17687;DHT22;8962;52.538;13.266;2022-09-19T12:33:59;11.70;99.90
17687;DHT22;8962;52.538;13.266;2022-09-19T12:36:40;11.60;99.90
17687;DHT22;8962;52.538;13.266;2022-09-19T12:39:13;11.60;99.90
17687;DHT22;8962;52.538;13.266;2022-09-19T12:41:47;11.50;99.90
17687;DHT22;8962;52.538;13.266;2022-09-19T12:44:19;11.50;99.90
17687;DHT22;8962;52.538;13.266;2022-09-19T12:46:55;11.60;99.90
17687;DHT22;8962;52.538;13.266;2022-09-19T12:49:53;11.60;99.90
17687;DHT22;8962;52.538;13.266;2022-09-19T12:52:25;11.60;99.90
17687;DHT22;8962;52.538;13.266;2022-09-19T12:54:59;11.60;99.90
17687;DHT22;8962;52.538;13.266;2022-09-19T12:57:35;11.60;99.90
17687;DHT22;8962;52.538;13.266;2022-09-19T13:00:05;11.60;99.90
17687;DHT22;8962;52.538;13.266;2022-09-19T13:02:38;11.70;99.90
17687;DHT22;8962;52.538;13.266;2022-09-19T13:05:12;11.60;99.90
17687;DHT22;8962;52.538;13.266;2022-09-19T13:07:45;11.70;99.90
17687;DHT22;8962;52.538;13.266;2022-09-19T13:10:20;11.70;99.90
17687;DHT22;8962;52.538;13.266;2022-09-19T13:12:54;11.80;99.90
17687;DHT22;8962;52.538;13.266;2022-09-19T13:15:26;11.80;99.90
17687;DHT22;8962;52.538;13.266;2022-09-19T13:17:58;11.80;99.90
17687;DHT22;8962;52.538;13.266;2022-09-19T13:20:46;11.80;99.90
17687;DHT22;8962;52.538;13.266;2022-09-19T13:23:31;11.90;99.90
17687;DHT22;8962;52.538;13.266;2022-09-19T13:26:16;11.80;99.90
17687;DHT22;8962;52.538;13.266;2022-09-19T13:28:47;11.80;99.90
17687;DHT22;8962;52.538;13.266;2022-09-19T13:31:15;11.80;99.90
17687;DHT22;8962;52.538;13.266;2022-09-19T13:33:47;11.70;99.90
17687;DHT22;8962;52.538;13.266;2022-09-19T13:36:18;11.70;99.90
17687;DHT22;8962;52.538;13.266;2022-09-19T13:39:03;11.70;99.90
17687;DHT22;8962;52.538;13.266;2022-09-19T13:41:36;11.70;99.90
17687;DHT22;8962;52.538;13.266;2022-09-19T13:44:13;11.70;99.90
17687;DHT22;8962;52.538;13.266;2022-09-19T13:46:50;11.70;99.90
17687;DHT22;8962;52.538;13.266;2022-09-19T13:49:25;11.70;99.90
17687;DHT22;8962;52.538;13.266;2022-09-19T13:51:58;11.80;99.90
17687;DHT22;8962;52.538;13.266;2022-09-19T13:54:35;11.70;99.90
17687;DHT22;8962;52.538;13.266;2022-09-19T13:57:17;11.70;99.90
17687;DHT22;8962;52.538;13.266;2022-09-19T13:59:50;11.90;99.90
17687;DHT22;8962;52.538;13.266;2022-09-19T14:02:23;11.90;99.90
17687;DHT22;8962;52.538;13.266;2022-09-19T14:04:58;11.90;99.90
17687;DHT22;8962;52.538;13.266;2022-09-19T14:07:43;11.90;99.90
17687;DHT22;8962;52.538;13.266;2022-09-19T14:10:20;12.00;99.90
17687;DHT22;8962;52.538;13.266;2022-09-19T14:13:00;12.10;99.90
17687;DHT22;8962;52.538;13.266;2022-09-19T14:16:02;12.10;99.90
17687;DHT22;8962;52.538;13.266;2022-09-19T14:18:55;12.20;99.90
17687;DHT22;8962;52.538;13.266;2022-09-19T14:21:55;12.30;99.90
17687;DHT22;8962;52.538;13.266;2022-09-19T14:24:49;12.40;99.90
17687;DHT22;8962;52.538;13.266;2022-09-19T14:30:39;12.40;99.90
17687;DHT22;8962;52.538;13.266;2022-09-19T14:37:09;12.40;99.90
17687;DHT22;8962;52.538;13.266;2022-09-19T14:39:58;12.40;99.90
17687;DHT22;8962;52.538;13.266;2022-09-19T14:42:55;12.30;99.90
17687;DHT22;8962;52.538;13.266;2022-09-19T14:45:51;12.40;99.90
17687;DHT22;8962;52.538;13.266;2022-09-19T14:48:27;12.40;99.90
17687;DHT22;8962;52.538;13.266;2022-09-19T14:50:57;12.40;99.90
17687;DHT22;8962;52.538;13.266;2022-09-19T14:53:31;12.40;99.90
17687;DHT22;8962;52.538;13.266;2022-09-19T14:56:07;12.40;99.90
17687;DHT22;8962;52.538;13.266;2022-09-19T14:58:36;12.50;99.90
17687;DHT22;8962;52.538;13.266;2022-09-19T15:01:10;12.60;99.90
17687;DHT22;8962;52.538;13.266;2022-09-19T15:03:44;12.60;99.90
17687;DHT22;8962;52.538;13.266;2022-09-19T15:06:16;12.70;99.90
17687;DHT22;8962;52.538;13.266;2022-09-19T15:08:48;12.80;99.90
17687;DHT22;8962;52.538;13.266;2022-09-19T15:11:16;12.80;99.90
17687;DHT22;8962;52.538;13.266;2022-09-19T15:13:46;12.80;99.90
17687;DHT22;8962;52.538;13.266;2022-09-19T15:16:15;12.80;99.90
17687;DHT22;8962;52.538;13.266;2022-09-19T15:18:44;12.80;99.90
17687;DHT22;8962;52.538;13.266;2022-09-19T15:21:15;12.80;99.90
17687;DHT22;8962;52.538;13.266;2022-09-19T15:23:43;12.90;99.90
17687;DHT22;8962;52.538;13.266;2022-09-19T15:26:15;12.90;99.90
17687;DHT22;8962;52.538;13.266;2022-09-19T15:28:56;13.00;99.90
17687;DHT22;8962;52.538;13.266;2022-09-19T15:31:31;13.00;99.90
17687;DHT22;8962;52.538;13.266;2022-09-19T15:34:02;13.10;99.90
17687;DHT22;8962;52.538;13.266;2022-09-19T15:36:35;13.10;99.90
17687;DHT22;8962;52.538;13.266;2022-09-19T15:39:05;13.10;99.90
17687;DHT22;8962;52.538;13.266;2022-09-19T15:41:34;13.20;99.90
17687;DHT22;8962;52.538;13.266;2022-09-19T15:44:03;13.20;99.90
17687;DHT22;8962;52.538;13.266;2022-09-19T15:46:40;13.20;99.90
17687;DHT22;8962;52.538;13.266;2022-09-19T15:49:19;13.20;99.90
17687;DHT22;8962;52.538;13.266;2022-09-19T15:51:55;13.10;99.90
17687;DHT22;8962;52.538;13.266;2022-09-19T15:54:24;13.10;99.90
17687;DHT22;8962;52.538;13.266;2022-09-19T15:57:11;13.10;99.90
17687;DHT22;8962;52.538;13.266;2022-09-19T15:59:43;13.00;99.90
17687;DHT22;8962;52.538;13.266;2022-09-19T16:02:17;13.00;99.90
17687;DHT22;8962;52.538;13.266;2022-09-19T16:05:02;13.00;99.90
17687;DHT22;8962;52.538;13.266;2022-09-19T16:07:37;12.90;99.90
17687;DHT22;8962;52.538;13.266;2022-09-19T16:10:23;12.80;99.90
17687;DHT22;8962;52.538;13.266;2022-09-19T16:12:53;12.80;99.90
17687;DHT22;8962;52.538;13.266;2022-09-19T16:15:28;12.80;99.90
17687;DHT22;8962;52.538;13.266;2022-09-19T16:18:14;12.80;99.90
17687;DHT22;8962;52.538;13.266;2022-09-19T16:21:01;12.80;99.90
17687;DHT22;8962;52.538;13.266;2022-09-19T16:23:39;12.80;99.90
17687;DHT22;8962;52.538;13.266;2022-09-19T16:26:08;12.70;99.90
17687;DHT22;8962;52.538;13.266;2022-09-19T16:28:39;12.70;99.90
17687;DHT22;8962;52.538;13.266;2022-09-19T16:31:16;12.70;99.90
17687;DHT22;8962;52.538;13.266;2022-09-19T16:33:48;12.60;99.90
17687;DHT22;8962;52.538;13.266;2022-09-19T16:36:16;12.50;99.90